Time;durP1;ratioP1;P1;durP2;ratioP2;P2;SDS_P1;SDS_P2;PMS_P1;PMS_P2;Temp;Humidity;BMP_temperature;BMP_pressure;BME280_temperature;BME280_humidity;BME280_pressure;Samples;Min_cycle;Max_cycle;Signal;HPM_P1;HPM_P2
2023/12/23 00:02:21;;;;;;;11.87;3.10;;;3.70;1.00;;;;;;5068324;28;20305;-76
2023/12/23 00:04:50;;;;;;;12.10;2.90;;;3.70;1.00;;;;;;5072779;28;20224;-76
2023/12/23 00:07:20;;;;;;;10.53;2.73;;;3.70;1.00;;;;;;5054510;28;20220;-76
2023/12/23 00:09:48;;;;;;;9.47;2.83;;;3.70;1.00;;;;;;5062872;28;20213;-76
2023/12/23 00:12:17;;;;;;;9.80;2.83;;;3.60;1.00;;;;;;5057049;28;20251;-76
2023/12/23 00:14:45;;;;;;;8.23;2.20;;;3.70;1.00;;;;;;5058425;28;20226;-75
2023/12/23 00:17:14;;;;;;;9.97;2.43;;;3.80;1.00;;;;;;5058003;28;20224;-77
2023/12/23 00:19:43;;;;;;;10.90;2.67;;;3.70;1.00;;;;;;5051421;28;20232;-78
2023/12/23 00:22:11;;;;;;;12.87;2.63;;;3.50;1.00;;;;;;5057977;28;20230;-74
2023/12/23 00:24:41;;;;;;;10.37;2.27;;;3.60;1.00;;;;;;5062635;28;20232;-75
2023/12/23 00:27:10;;;;;;;8.47;2.83;;;3.70;1.00;;;;;;5060629;28;20220;-75
2023/12/23 00:29:39;;;;;;;10.77;2.93;;;3.70;1.00;;;;;;5054239;28;20434;-74
2023/12/23 00:32:07;;;;;;;5.43;2.80;;;3.80;1.00;;;;;;5065484;28;20307;-78
2023/12/23 00:34:36;;;;;;;10.70;3.10;;;3.70;1.00;;;;;;5062523;28;20235;-77
2023/12/23 00:37:05;;;;;;;9.43;2.40;;;3.60;1.00;;;;;;5061628;28;20283;-77
2023/12/23 00:39:34;;;;;;;9.33;2.60;;;3.70;1.00;;;;;;5059554;28;20219;-77
2023/12/23 00:42:04;;;;;;;12.00;2.53;;;3.70;1.00;;;;;;5053091;28;20220;-75
2023/12/23 00:44:33;;;;;;;12.13;2.67;;;3.70;1.00;;;;;;5062124;28;20224;-76
2023/12/23 00:47:01;;;;;;;8.97;2.40;;;3.70;1.00;;;;;;5088280;28;20243;-75
2023/12/23 00:49:30;;;;;;;11.03;2.50;;;3.60;1.00;;;;;;5062370;28;20224;-75
2023/12/23 00:51:59;;;;;;;10.50;2.23;;;3.70;1.00;;;;;;5062274;28;20212;-74
2023/12/23 00:54:27;;;;;;;9.20;2.47;;;3.70;1.00;;;;;;5060252;28;21210;-73
2023/12/23 00:56:57;;;;;;;9.80;2.33;;;3.60;1.00;;;;;;5062208;28;20239;-75
2023/12/23 00:59:27;;;;;;;9.53;3.03;;;3.70;1.00;;;;;;5058139;28;20310;-75
2023/12/23 01:01:55;;;;;;;14.63;2.43;;;3.60;1.00;;;;;;5069302;28;20220;-75
2023/12/23 01:04:23;;;;;;;10.80;2.37;;;3.60;1.00;;;;;;5060330;28;20315;-75
2023/12/23 01:06:52;;;;;;;8.37;2.33;;;3.70;1.00;;;;;;5064043;28;20313;-74
2023/12/23 01:09:21;;;;;;;9.33;2.03;;;3.70;1.00;;;;;;5063681;28;20299;-76
2023/12/23 01:11:49;;;;;;;6.70;2.37;;;3.70;1.00;;;;;;5066777;28;20740;-74
2023/12/23 01:14:18;;;;;;;10.03;2.17;;;3.60;1.00;;;;;;5057852;28;20239;-77
2023/12/23 01:16:49;;;;;;;14.43;2.67;;;3.60;1.00;;;;;;5064994;28;20226;-74
2023/12/23 01:19:18;;;;;;;12.43;2.50;;;3.60;1.00;;;;;;5059823;28;20303;-73
2023/12/23 01:21:46;;;;;;;10.57;2.20;;;3.70;1.00;;;;;;5065925;28;20217;-73
2023/12/23 01:24:15;;;;;;;10.07;2.00;;;3.70;1.00;;;;;;5064518;28;20220;-74
2023/12/23 01:26:44;;;;;;;7.20;1.90;;;3.70;1.00;;;;;;5063128;28;20217;-74
2023/12/23 01:29:12;;;;;;;8.77;2.10;;;3.80;1.00;;;;;;5056727;28;20264;-74
2023/12/23 01:31:41;;;;;;;8.13;2.07;;;3.50;1.00;;;;;;5064444;28;20298;-75
2023/12/23 01:34:11;;;;;;;4.33;1.70;;;3.60;1.00;;;;;;5064576;28;20939;-77
2023/12/23 01:36:40;;;;;;;7.27;2.37;;;3.40;1.00;;;;;;5068519;28;20349;-74
2023/12/23 01:39:09;;;;;;;10.90;2.20;;;3.40;1.00;;;;;;5063409;28;20639;-74
2023/12/23 01:41:37;;;;;;;9.60;2.23;;;3.30;1.00;;;;;;5069347;28;20236;-73
2023/12/23 01:44:06;;;;;;;12.00;2.67;;;3.30;1.00;;;;;;5066459;28;20236;-75
2023/12/23 01:46:35;;;;;;;11.00;1.90;;;3.40;1.00;;;;;;5068171;28;20284;-74
2023/12/23 01:49:05;;;;;;;6.90;2.00;;;3.50;1.00;;;;;;5058661;28;20235;-74
2023/12/23 01:51:36;;;;;;;8.13;2.00;;;3.50;1.00;;;;;;5059922;28;21823;-76
2023/12/23 01:54:07;;;;;;;11.00;2.37;;;3.50;1.00;;;;;;5071089;28;20656;-76
2023/12/23 01:56:36;;;;;;;7.20;2.10;;;3.40;1.00;;;;;;5058469;28;22156;-76
2023/12/23 01:59:05;;;;;;;9.77;2.30;;;3.50;1.00;;;;;;5076612;28;20224;-74
2023/12/23 02:01:35;;;;;;;10.30;2.07;;;3.40;1.00;;;;;;5059388;28;20221;-74
2023/12/23 02:04:04;;;;;;;10.63;2.40;;;3.40;1.00;;;;;;5064070;28;20665;-74
2023/12/23 02:06:33;;;;;;;11.77;2.07;;;3.50;1.00;;;;;;5067322;28;20216;-74
2023/12/23 02:09:03;;;;;;;11.70;2.03;;;3.40;1.00;;;;;;5066005;28;20231;-74
2023/12/23 02:11:43;;;;;;;6.77;1.87;;;3.30;1.00;;;;;;5067925;28;20301;-72
2023/12/23 02:14:21;;;;;;;8.03;2.00;;;3.40;1.00;;;;;;5064821;28;20353;-76
2023/12/23 02:16:50;;;;;;;9.47;2.00;;;3.40;1.00;;;;;;5062396;28;20228;-74
2023/12/23 02:19:18;;;;;;;5.57;1.80;;;3.50;1.00;;;;;;5063180;28;20251;-76
2023/12/23 02:21:48;;;;;;;8.23;1.83;;;3.50;1.00;;;;;;5065750;28;20265;-75
2023/12/23 02:24:17;;;;;;;10.90;2.13;;;3.50;1.00;;;;;;5054145;28;20229;-74
2023/12/23 02:26:50;;;;;;;10.27;2.60;;;3.50;1.00;;;;;;5060948;28;20244;-73
2023/12/23 02:29:20;;;;;;;9.70;2.23;;;3.40;1.00;;;;;;5063338;28;20237;-73
2023/12/23 02:31:49;;;;;;;8.00;1.87;;;3.30;1.00;;;;;;5066213;28;20220;-74
2023/12/23 02:34:18;;;;;;;9.20;2.43;;;3.40;1.00;;;;;;5053438;28;20217;-74
2023/12/23 02:36:48;;;;;;;12.60;2.23;;;3.50;1.00;;;;;;5054139;28;22433;-74
2023/12/23 02:39:16;;;;;;;6.87;2.00;;;3.40;1.00;;;;;;5052457;28;20236;-74
2023/12/23 02:41:45;;;;;;;8.40;2.30;;;3.40;1.00;;;;;;5054678;28;20222;-74
2023/12/23 02:44:14;;;;;;;10.53;2.07;;;3.40;1.00;;;;;;5055141;28;20220;-75
2023/12/23 02:46:43;;;;;;;10.20;2.57;;;3.40;1.00;;;;;;5053738;28;20216;-74
2023/12/23 02:49:11;;;;;;;9.53;2.37;;;3.40;1.00;;;;;;5070516;28;20305;-74
2023/12/23 02:51:39;;;;;;;8.90;2.07;;;3.40;1.00;;;;;;5059657;28;20225;-73
2023/12/23 02:54:09;;;;;;;9.90;2.17;;;3.50;1.00;;;;;;5057206;28;20295;-73
2023/12/23 02:56:38;;;;;;;7.03;1.90;;;3.40;1.00;;;;;;5057721;28;20243;-73
2023/12/23 02:59:08;;;;;;;9.47;2.40;;;3.30;1.00;;;;;;5053808;28;20224;-73
2023/12/23 03:01:36;;;;;;;6.87;2.00;;;3.30;1.00;;;;;;5057216;28;20560;-73
2023/12/23 03:04:05;;;;;;;8.23;2.03;;;3.30;1.00;;;;;;5057010;28;20239;-73
2023/12/23 03:06:35;;;;;;;7.53;1.90;;;3.30;1.00;;;;;;5060506;28;20236;-74
2023/12/23 03:09:04;;;;;;;8.27;1.90;;;3.30;1.00;;;;;;5061979;28;20212;-77
2023/12/23 03:11:34;;;;;;;6.43;2.03;;;3.40;1.00;;;;;;5057646;28;20307;-76
2023/12/23 03:14:02;;;;;;;8.70;1.67;;;3.40;1.00;;;;;;5056717;28;20231;-75
2023/12/23 03:16:34;;;;;;;8.67;1.90;;;3.30;1.00;;;;;;5055042;28;20227;-76
2023/12/23 03:19:02;;;;;;;10.53;1.97;;;3.30;1.00;;;;;;5058255;28;20228;-78
2023/12/23 03:21:31;;;;;;;12.23;2.27;;;3.40;1.00;;;;;;5059343;28;20239;-78
2023/12/23 03:24:01;;;;;;;9.90;2.20;;;3.40;1.00;;;;;;5070243;28;20225;-78
2023/12/23 03:26:29;;;;;;;8.87;1.90;;;3.30;1.00;;;;;;5055150;28;20231;-77
2023/12/23 03:28:59;;;;;;;6.17;2.17;;;3.30;1.00;;;;;;5051645;28;20219;-76
2023/12/23 03:31:29;;;;;;;7.53;2.00;;;3.30;1.00;;;;;;5058208;28;20798;-77
2023/12/23 03:34:00;;;;;;;10.50;1.83;;;3.40;1.00;;;;;;5059603;28;20325;-78
2023/12/23 03:36:29;;;;;;;6.93;1.80;;;3.30;1.00;;;;;;5054235;28;20224;-76
2023/12/23 03:38:58;;;;;;;7.60;1.60;;;3.30;1.00;;;;;;5053542;28;20239;-76
2023/12/23 03:41:26;;;;;;;8.30;2.03;;;3.40;1.00;;;;;;5049326;28;20302;-76
2023/12/23 03:43:55;;;;;;;9.87;2.43;;;3.40;1.00;;;;;;5063598;28;20301;-76
2023/12/23 03:46:25;;;;;;;9.67;2.13;;;3.40;1.00;;;;;;5055828;28;20228;-77
2023/12/23 03:48:53;;;;;;;7.00;2.40;;;3.50;1.00;;;;;;5061673;28;20229;-78
2023/12/23 03:51:23;;;;;;;9.93;1.97;;;3.40;1.00;;;;;;5057913;28;21035;-77
2023/12/23 03:53:51;;;;;;;10.13;2.33;;;3.40;1.00;;;;;;5047561;28;20216;-76
2023/12/23 03:56:21;;;;;;;9.13;2.00;;;3.40;1.00;;;;;;5037419;28;20282;-78
2023/12/23 03:58:49;;;;;;;12.83;2.10;;;3.40;1.00;;;;;;5056221;28;20233;-78
2023/12/23 04:01:18;;;;;;;9.73;2.20;;;3.30;1.00;;;;;;5045447;28;20226;-79
2023/12/23 04:03:48;;;;;;;8.50;2.30;;;3.40;1.00;;;;;;5051513;28;20251;-80
2023/12/23 04:06:17;;;;;;;6.97;1.70;;;3.20;1.00;;;;;;5062165;28;20224;-80
2023/12/23 04:08:46;;;;;;;7.10;1.80;;;3.20;1.00;;;;;;5060016;28;20235;-77
2023/12/23 04:11:14;;;;;;;10.63;1.90;;;3.20;1.00;;;;;;5064661;28;20222;-78
2023/12/23 04:13:43;;;;;;;8.90;1.80;;;3.20;1.00;;;;;;5065178;28;20232;-78
2023/12/23 04:16:12;;;;;;;7.90;1.93;;;3.30;1.00;;;;;;5067438;28;20242;-79
2023/12/23 04:18:43;;;;;;;5.97;1.80;;;3.30;1.00;;;;;;5062892;28;20260;-79
2023/12/23 04:21:13;;;;;;;7.90;1.90;;;3.20;1.00;;;;;;5061668;28;20243;-81
2023/12/23 04:23:41;;;;;;;11.47;2.00;;;3.10;1.00;;;;;;5074711;28;20228;-79
2023/12/23 04:26:10;;;;;;;6.53;1.97;;;3.20;1.00;;;;;;5080981;28;20212;-78
2023/12/23 04:28:39;;;;;;;5.87;1.80;;;3.20;1.00;;;;;;5061866;28;20325;-79
2023/12/23 04:31:08;;;;;;;5.63;1.53;;;3.20;1.00;;;;;;5059866;28;20257;-79
2023/12/23 04:33:37;;;;;;;11.33;1.97;;;3.10;1.00;;;;;;5093323;28;20244;-75
2023/12/23 04:36:07;;;;;;;6.33;1.40;;;3.20;1.00;;;;;;5060011;28;20235;-77
2023/12/23 04:38:38;;;;;;;9.30;1.90;;;3.20;1.00;;;;;;5071133;28;20221;-76
2023/12/23 04:41:07;;;;;;;5.93;1.73;;;3.10;1.00;;;;;;5054147;28;20258;-78
2023/12/23 04:43:39;;;;;;;7.43;1.80;;;3.10;1.00;;;;;;5046340;28;20276;-75
2023/12/23 04:46:08;;;;;;;11.33;2.20;;;3.10;1.00;;;;;;5036450;28;20312;-74
2023/12/23 04:48:36;;;;;;;8.97;1.87;;;3.10;1.00;;;;;;5031184;28;20224;-74
2023/12/23 04:51:05;;;;;;;9.73;2.20;;;3.10;1.00;;;;;;5033225;28;20227;-74
2023/12/23 04:53:34;;;;;;;7.93;2.00;;;3.10;1.00;;;;;;5053173;28;20220;-74
2023/12/23 04:56:04;;;;;;;9.40;2.27;;;3.00;1.00;;;;;;5048999;28;20311;-75
2023/12/23 04:58:33;;;;;;;8.87;1.97;;;3.00;1.00;;;;;;5036303;28;20220;-75
2023/12/23 05:01:02;;;;;;;8.10;1.93;;;3.00;1.00;;;;;;5040905;28;21018;-74
2023/12/23 05:03:33;;;;;;;10.77;2.23;;;3.00;1.00;;;;;;5057160;28;20322;-73
2023/12/23 05:06:03;;;;;;;6.73;1.73;;;2.90;1.00;;;;;;5052169;28;20248;-77
2023/12/23 05:08:32;;;;;;;7.50;1.50;;;2.90;1.00;;;;;;5054601;28;20225;-75
2023/12/23 05:11:01;;;;;;;6.03;1.50;;;2.90;1.00;;;;;;5059443;28;20234;-72
2023/12/23 05:13:31;;;;;;;8.73;2.07;;;2.80;1.00;;;;;;5056423;28;20220;-71
2023/12/23 05:16:00;;;;;;;6.80;1.33;;;2.80;1.00;;;;;;5071841;28;20278;-73
2023/12/23 05:18:29;;;;;;;8.00;1.60;;;2.70;1.00;;;;;;5061002;28;20311;-73
2023/12/23 05:20:58;;;;;;;11.80;2.17;;;2.70;1.00;;;;;;5050449;28;20246;-75
2023/12/23 05:23:26;;;;;;;5.40;1.37;;;2.70;1.00;;;;;;5056776;28;20220;-78
2023/12/23 05:25:55;;;;;;;6.47;1.43;;;2.90;1.00;;;;;;5051698;28;20227;-75
2023/12/23 05:28:27;;;;;;;10.43;1.77;;;3.00;1.00;;;;;;5050797;28;21277;-76
2023/12/23 05:30:58;;;;;;;9.17;1.40;;;3.00;1.00;;;;;;5054805;28;20771;-76
2023/12/23 05:33:26;;;;;;;8.20;1.33;;;3.00;1.00;;;;;;5055720;28;20683;-77
2023/12/23 05:35:55;;;;;;;8.63;1.60;;;3.00;1.00;;;;;;5057556;28;20937;-76
2023/12/23 05:38:24;;;;;;;6.90;1.37;;;2.90;1.00;;;;;;5057048;28;20219;-76
2023/12/23 05:40:53;;;;;;;7.60;1.70;;;2.90;1.00;;;;;;5058141;28;20247;-74
2023/12/23 05:43:21;;;;;;;5.00;1.53;;;2.80;1.00;;;;;;5054314;28;20232;-75
2023/12/23 05:45:50;;;;;;;7.40;1.97;;;2.80;1.00;;;;;;5056410;28;20238;-76
2023/12/23 05:48:20;;;;;;;12.67;2.17;;;2.80;1.00;;;;;;5051503;28;20226;-78
2023/12/23 05:50:49;;;;;;;7.93;2.20;;;2.90;1.00;;;;;;5051947;28;21143;-75
2023/12/23 05:53:17;;;;;;;8.13;2.43;;;2.70;1.00;;;;;;5058634;28;20255;-75
2023/12/23 05:55:47;;;;;;;11.47;2.13;;;2.80;1.00;;;;;;5059856;28;20294;-75
2023/12/23 05:58:15;;;;;;;10.73;1.70;;;2.80;1.00;;;;;;5055401;28;20243;-76
2023/12/23 06:00:44;;;;;;;6.20;2.17;;;2.90;1.00;;;;;;5065879;28;20278;-74
2023/12/23 06:03:13;;;;;;;5.07;1.90;;;2.90;1.00;;;;;;5055810;28;20225;-74
2023/12/23 06:05:43;;;;;;;10.50;2.37;;;2.80;1.00;;;;;;5070231;28;20227;-72
2023/12/23 06:08:12;;;;;;;12.03;2.80;;;2.80;1.00;;;;;;5095166;28;20232;-76
2023/12/23 06:10:40;;;;;;;8.47;1.80;;;2.80;1.00;;;;;;5062347;28;20303;-75
2023/12/23 06:13:28;;;;;;;11.63;4.03;;;2.80;1.00;;;;;;5059850;28;22932;-75
2023/12/23 06:15:56;;;;;;;8.67;1.90;;;2.80;1.00;;;;;;5065389;28;20227;-75
2023/12/23 06:18:25;;;;;;;11.60;3.20;;;2.90;1.00;;;;;;5059014;28;20259;-74
2023/12/23 06:20:55;;;;;;;9.70;3.80;;;2.80;1.00;;;;;;5067792;28;20223;-75
2023/12/23 06:23:23;;;;;;;11.97;2.50;;;2.80;1.00;;;;;;5050926;28;20224;-75
2023/12/23 06:25:52;;;;;;;8.63;1.67;;;2.70;1.00;;;;;;5061840;28;20221;-76
2023/12/23 06:28:20;;;;;;;9.83;1.90;;;2.90;1.00;;;;;;5060979;28;20220;-77
2023/12/23 06:30:49;;;;;;;6.80;1.63;;;2.80;1.00;;;;;;5054660;28;20225;-76
2023/12/23 06:33:17;;;;;;;10.40;1.60;;;2.90;1.00;;;;;;5052453;28;20345;-76
2023/12/23 06:35:46;;;;;;;9.80;1.63;;;2.80;1.00;;;;;;5062427;28;20711;-76
2023/12/23 06:38:18;;;;;;;7.50;1.93;;;2.80;1.00;;;;;;5054810;28;20707;-77
2023/12/23 06:40:47;;;;;;;7.37;1.77;;;2.90;1.00;;;;;;5054418;28;20228;-76
2023/12/23 06:43:15;;;;;;;6.73;1.37;;;2.80;1.00;;;;;;5060893;28;20223;-75
2023/12/23 06:46:04;;;;;;;9.13;1.50;;;2.80;1.00;;;;;;5058117;28;20216;-77
2023/12/23 06:48:32;;;;;;;5.80;1.47;;;2.80;1.00;;;;;;5049795;28;20228;-77
2023/12/23 06:51:03;;;;;;;7.93;1.40;;;2.90;1.00;;;;;;5038349;28;20225;-78
2023/12/23 06:53:33;;;;;;;7.33;1.67;;;2.90;1.00;;;;;;5038812;28;20225;-76
2023/12/23 06:56:05;;;;;;;10.80;1.87;;;2.90;1.00;;;;;;5048799;28;20232;-80
2023/12/23 06:58:34;;;;;;;8.67;2.17;;;3.00;1.00;;;;;;5057900;28;20227;-79
2023/12/23 07:01:02;;;;;;;4.80;1.43;;;2.90;1.00;;;;;;5057363;28;20229;-78
2023/12/23 07:03:31;;;;;;;7.60;1.60;;;3.00;1.00;;;;;;5055316;28;20312;-80
2023/12/23 07:06:00;;;;;;;4.77;1.63;;;3.00;1.00;;;;;;5056829;28;20275;-79
2023/12/23 07:08:29;;;;;;;6.73;1.60;;;2.90;1.00;;;;;;5057108;28;20225;-76
2023/12/23 07:10:59;;;;;;;7.57;1.70;;;3.00;1.00;;;;;;5057774;28;20655;-76
2023/12/23 07:13:29;;;;;;;10.03;1.50;;;3.00;1.00;;;;;;5050562;28;22772;-75
2023/12/23 07:15:58;;;;;;;9.10;1.60;;;2.90;1.00;;;;;;5059047;28;20589;-74
2023/12/23 07:18:26;;;;;;;8.53;1.73;;;3.00;1.00;;;;;;5054710;28;20226;-76
2023/12/23 07:20:55;;;;;;;5.63;1.33;;;3.00;1.00;;;;;;5056423;28;20372;-76
2023/12/23 07:23:24;;;;;;;9.97;2.03;;;2.90;1.00;;;;;;5052800;28;20331;-76
2023/12/23 07:25:53;;;;;;;9.13;1.47;;;2.90;1.00;;;;;;5054049;28;20227;-73
2023/12/23 07:28:23;;;;;;;8.23;1.80;;;2.90;1.00;;;;;;5053301;28;20269;-75
2023/12/23 07:30:51;;;;;;;8.27;1.77;;;3.00;1.00;;;;;;5053905;28;20238;-74
2023/12/23 07:33:21;;;;;;;5.17;1.30;;;3.00;1.00;;;;;;5055480;28;20235;-75
2023/12/23 07:35:51;;;;;;;7.10;1.50;;;3.00;1.00;;;;;;5052510;28;20228;-74
2023/12/23 07:38:19;;;;;;;12.17;1.87;;;3.10;1.00;;;;;;5053433;28;20242;-73
2023/12/23 07:40:48;;;;;;;6.47;1.77;;;3.10;1.00;;;;;;5073607;28;20224;-74
2023/12/23 07:43:17;;;;;;;6.93;1.33;;;3.10;1.00;;;;;;5057589;28;20213;-72
2023/12/23 07:45:47;;;;;;;6.00;1.43;;;3.30;1.00;;;;;;5052094;28;20238;-71
2023/12/23 07:48:15;;;;;;;9.30;1.40;;;3.10;1.00;;;;;;5057814;28;20283;-73
2023/12/23 07:50:44;;;;;;;4.10;1.50;;;3.10;1.00;;;;;;5062599;28;20227;-84
2023/12/23 07:53:12;;;;;;;11.50;2.10;;;3.20;1.00;;;;;;5058417;28;20271;-81
2023/12/23 07:55:41;;;;;;;7.30;1.70;;;3.10;1.00;;;;;;5063734;28;20707;-80
2023/12/23 07:58:09;;;;;;;7.33;1.50;;;3.20;1.00;;;;;;5060749;28;20248;-81
2023/12/23 08:00:38;;;;;;;7.40;1.90;;;3.20;1.00;;;;;;5063029;28;20225;-78
2023/12/23 08:03:08;;;;;;;3.87;1.50;;;3.10;1.00;;;;;;5063149;28;20631;-81
2023/12/23 08:05:37;;;;;;;5.70;1.50;;;3.10;1.00;;;;;;5062632;28;21171;-81
2023/12/23 08:08:09;;;;;;;11.53;1.90;;;3.10;1.00;;;;;;5059946;28;20387;-81
2023/12/23 08:10:39;;;;;;;7.20;1.60;;;3.10;1.00;;;;;;5053553;28;20220;-82
2023/12/23 08:13:08;;;;;;;6.47;1.47;;;3.20;1.00;;;;;;5062063;28;20227;-77
2023/12/23 08:15:36;;;;;;;11.37;1.63;;;3.20;1.00;;;;;;5056450;28;20220;-73
2023/12/23 08:18:05;;;;;;;7.07;1.60;;;3.20;1.00;;;;;;5058774;28;20224;-80
2023/12/23 08:20:35;;;;;;;5.83;1.67;;;3.30;1.00;;;;;;5057251;28;20274;-81
2023/12/23 08:23:04;;;;;;;7.13;1.63;;;3.10;1.00;;;;;;5058673;28;20703;-80
2023/12/23 08:25:33;;;;;;;7.40;1.63;;;3.30;1.00;;;;;;5063818;28;20232;-81
2023/12/23 08:28:02;;;;;;;16.30;5.77;;;3.20;1.00;;;;;;5059509;28;20335;-84
2023/12/23 08:30:31;;;;;;;26.27;12.10;;;3.10;1.00;;;;;;5064281;28;20381;-81
2023/12/23 08:32:59;;;;;;;47.07;25.17;;;3.30;1.00;;;;;;5062152;28;20224;-83
2023/12/23 08:35:28;;;;;;;9.03;4.10;;;3.30;1.00;;;;;;5061584;28;20298;-80
2023/12/23 08:37:59;;;;;;;6.93;3.00;;;3.50;1.00;;;;;;5061175;28;20220;-80
2023/12/23 08:40:28;;;;;;;7.80;2.17;;;3.50;1.00;;;;;;5058994;28;22021;-79
2023/12/23 08:42:56;;;;;;;6.30;2.10;;;3.30;1.00;;;;;;5059531;28;20231;-77
2023/12/23 08:45:25;;;;;;;8.23;2.30;;;3.40;1.00;;;;;;5059671;28;20240;-78
2023/12/23 08:47:53;;;;;;;9.17;3.03;;;3.20;1.00;;;;;;5061263;28;20220;-78
2023/12/23 08:50:23;;;;;;;6.07;2.40;;;3.20;1.00;;;;;;5056280;28;20304;-77
2023/12/23 08:52:52;;;;;;;10.13;3.97;;;3.30;1.00;;;;;;5077475;28;20285;-78
2023/12/23 08:55:22;;;;;;;9.90;3.23;;;3.30;1.00;;;;;;5058554;28;20236;-78
2023/12/23 08:57:50;;;;;;;8.47;3.20;;;3.10;1.00;;;;;;5063937;28;20228;-78
2023/12/23 09:00:20;;;;;;;8.17;2.80;;;3.20;1.00;;;;;;5062790;28;20258;-77
2023/12/23 09:02:49;;;;;;;6.40;2.33;;;3.30;1.00;;;;;;5060528;28;20277;-77
2023/12/23 09:05:18;;;;;;;7.03;3.10;;;3.30;1.00;;;;;;5056019;28;20240;-77
2023/12/23 09:07:47;;;;;;;8.53;2.70;;;3.30;1.00;;;;;;5058385;28;20246;-77
2023/12/23 09:10:16;;;;;;;8.10;2.43;;;3.40;1.00;;;;;;5063118;28;20228;-78
2023/12/23 09:12:46;;;;;;;8.70;2.40;;;3.40;1.00;;;;;;5059622;28;20724;-77
2023/12/23 09:15:14;;;;;;;10.53;2.90;;;3.50;1.00;;;;;;5058668;28;20277;-78
2023/12/23 09:17:43;;;;;;;14.70;2.73;;;3.30;1.00;;;;;;5063502;28;20299;-79
2023/12/23 09:20:11;;;;;;;8.03;4.80;;;3.40;1.00;;;;;;5063495;28;20264;-78
2023/12/23 09:22:40;;;;;;;8.23;3.60;;;3.40;1.00;;;;;;5060193;28;20223;-78
2023/12/23 09:25:09;;;;;;;9.27;2.30;;;3.50;1.00;;;;;;5056640;28;20220;-77
2023/12/23 09:27:38;;;;;;;5.10;2.10;;;3.40;1.00;;;;;;5065780;28;20301;-78
2023/12/23 09:30:09;;;;;;;10.60;2.07;;;3.40;1.00;;;;;;5069553;28;20224;-78
2023/12/23 09:32:38;;;;;;;7.27;1.80;;;3.40;1.00;;;;;;5068105;28;20281;-76
2023/12/23 09:35:06;;;;;;;5.37;1.80;;;3.50;1.00;;;;;;5063968;28;20220;-76
2023/12/23 09:37:36;;;;;;;8.50;2.00;;;3.40;1.00;;;;;;5062232;28;20307;-78
2023/12/23 09:40:06;;;;;;;5.03;1.70;;;3.50;1.00;;;;;;5067191;28;20220;-80
2023/12/23 09:42:35;;;;;;;5.00;1.47;;;3.50;1.00;;;;;;5065481;28;20243;-79
2023/12/23 09:45:04;;;;;;;8.73;1.53;;;3.50;1.00;;;;;;5064042;28;20217;-78
2023/12/23 09:47:34;;;;;;;6.30;1.80;;;3.60;1.00;;;;;;5068131;28;20266;-78
2023/12/23 09:50:03;;;;;;;5.27;2.10;;;3.60;1.00;;;;;;5067892;28;20235;-79
2023/12/23 09:52:31;;;;;;;6.70;1.83;;;3.50;1.00;;;;;;5067375;28;20280;-77
2023/12/23 09:55:03;;;;;;;7.23;2.10;;;3.40;1.00;;;;;;5049377;28;20220;-80
2023/12/23 09:57:35;;;;;;;5.63;1.83;;;3.40;1.00;;;;;;5066287;28;20263;-79
2023/12/23 10:00:04;;;;;;;5.27;2.10;;;3.40;1.00;;;;;;5082541;28;20307;-78
2023/12/23 10:02:40;;;;;;;7.27;2.20;;;3.50;1.00;;;;;;5066675;28;20242;-78
2023/12/23 10:05:09;;;;;;;8.77;2.33;;;3.40;1.00;;;;;;5060690;28;20323;-77
2023/12/23 10:07:39;;;;;;;5.37;2.17;;;3.50;1.00;;;;;;5059291;28;20224;-79
2023/12/23 10:10:09;;;;;;;8.03;2.80;;;3.50;1.00;;;;;;5063855;28;21090;-79
2023/12/23 10:12:37;;;;;;;6.90;2.60;;;3.40;1.00;;;;;;5049342;28;20334;-79
2023/12/23 10:15:06;;;;;;;6.03;2.03;;;3.50;1.00;;;;;;5042331;28;20220;-79
2023/12/23 10:17:35;;;;;;;7.33;2.20;;;3.50;1.00;;;;;;5059035;28;20293;-79
2023/12/23 10:20:06;;;;;;;7.87;2.40;;;3.40;1.00;;;;;;5061857;28;20797;-79
2023/12/23 10:22:34;;;;;;;6.20;2.50;;;3.20;1.00;;;;;;5045517;28;20236;-79
2023/12/23 10:25:03;;;;;;;7.60;2.40;;;3.00;1.00;;;;;;5043978;28;20691;-79
2023/12/23 10:27:33;;;;;;;5.33;2.30;;;3.00;1.00;;;;;;5057096;28;20700;-79
2023/12/23 10:30:08;;;;;;;5.70;2.27;;;3.10;1.00;;;;;;5056736;28;20229;-78
2023/12/23 10:32:38;;;;;;;11.33;2.90;;;3.20;1.00;;;;;;5056888;28;20258;-78
2023/12/23 10:35:14;;;;;;;7.70;2.90;;;3.00;1.00;;;;;;5057808;28;20262;-78
2023/12/23 10:37:43;;;;;;;7.87;3.00;;;3.10;1.00;;;;;;5063374;28;20222;-77
2023/12/23 10:40:18;;;;;;;14.47;3.73;;;3.30;1.00;;;;;;5065321;28;20239;-78
2023/12/23 10:42:50;;;;;;;9.50;2.53;;;3.30;1.00;;;;;;5062446;28;20231;-79
2023/12/23 10:45:21;;;;;;;7.80;3.10;;;3.40;1.00;;;;;;5057661;28;20928;-78
2023/12/23 10:47:51;;;;;;;11.47;3.40;;;3.50;1.00;;;;;;5060443;28;20335;-80
2023/12/23 10:50:24;;;;;;;8.80;2.90;;;3.50;1.00;;;;;;5078599;28;20293;-79
2023/12/23 10:52:53;;;;;;;6.23;2.70;;;3.60;1.00;;;;;;5062161;28;20228;-77
2023/12/23 10:55:25;;;;;;;5.37;2.33;;;3.60;1.00;;;;;;5062238;28;20769;-78
2023/12/23 10:57:59;;;;;;;6.40;2.57;;;3.60;1.00;;;;;;5061669;28;20216;-78
2023/12/23 11:00:27;;;;;;;8.27;2.87;;;3.60;1.00;;;;;;5063873;28;20248;-77
2023/12/23 11:02:58;;;;;;;9.07;2.80;;;3.30;1.00;;;;;;5072237;28;20250;-79
2023/12/23 11:05:29;;;;;;;9.57;2.80;;;3.20;1.00;;;;;;5061902;28;20221;-79
2023/12/23 11:08:00;;;;;;;7.33;2.30;;;2.90;1.00;;;;;;5061904;28;20246;-78
2023/12/23 11:10:41;;;;;;;9.07;2.83;;;2.80;1.00;;;;;;5058867;28;20267;-77
2023/12/23 11:13:10;;;;;;;5.53;2.50;;;2.70;1.00;;;;;;5061757;28;20221;-78
2023/12/23 11:15:39;;;;;;;4.83;2.30;;;2.80;1.00;;;;;;5061448;28;20224;-78
2023/12/23 11:18:10;;;;;;;10.27;5.17;;;3.00;1.00;;;;;;5069782;28;20667;-77
2023/12/23 11:20:49;;;;;;;11.37;4.73;;;2.90;1.00;;;;;;5058579;28;20884;-78
2023/12/23 11:23:35;;;;;;;12.73;5.77;;;3.00;1.00;;;;;;5059440;28;20229;-78
2023/12/23 11:26:04;;;;;;;7.80;3.13;;;3.10;1.00;;;;;;5044571;28;20239;-78
2023/12/23 11:28:37;;;;;;;6.03;2.90;;;3.20;1.00;;;;;;5064195;28;20303;-78
2023/12/23 11:31:06;;;;;;;8.47;2.83;;;3.30;1.00;;;;;;5057109;28;20224;-80
2023/12/23 11:33:36;;;;;;;11.10;3.20;;;3.20;1.00;;;;;;5064227;28;20243;-79
2023/12/23 11:36:07;;;;;;;7.57;2.63;;;3.20;1.00;;;;;;5064318;28;20715;-78
2023/12/23 11:38:50;;;;;;;6.23;2.83;;;3.30;1.00;;;;;;5062504;28;20220;-79
2023/12/23 11:41:21;;;;;;;11.40;2.67;;;3.40;1.00;;;;;;5060893;28;20255;-78
2023/12/23 11:43:51;;;;;;;12.93;4.13;;;3.50;1.00;;;;;;5056576;28;20691;-78
2023/12/23 11:46:21;;;;;;;5.03;2.27;;;3.70;1.00;;;;;;5060562;28;20228;-79
2023/12/23 11:48:50;;;;;;;5.53;2.60;;;3.70;1.00;;;;;;5056096;28;20243;-79
2023/12/23 11:51:20;;;;;;;13.43;2.90;;;3.80;1.00;;;;;;5054365;28;20212;-79
2023/12/23 11:53:49;;;;;;;12.10;3.07;;;3.80;1.00;;;;;;5064514;28;20232;-79
2023/12/23 11:56:18;;;;;;;9.57;2.70;;;3.90;1.00;;;;;;5064803;28;20220;-78
2023/12/23 11:58:47;;;;;;;7.87;2.90;;;3.90;1.00;;;;;;5066851;28;20216;-78
2023/12/23 12:01:18;;;;;;;7.23;2.80;;;3.60;1.00;;;;;;5066112;28;20227;-79
2023/12/23 12:03:48;;;;;;;9.27;3.00;;;3.80;1.00;;;;;;5063655;28;20251;-79
2023/12/23 12:06:16;;;;;;;9.20;2.70;;;3.90;1.00;;;;;;5063254;28;20315;-79
2023/12/23 12:08:47;;;;;;;9.13;2.43;;;3.80;1.00;;;;;;5057510;28;20238;-79
2023/12/23 12:11:17;;;;;;;9.80;2.20;;;3.70;1.00;;;;;;5058213;28;20353;-78
2023/12/23 12:13:46;;;;;;;6.03;2.50;;;3.70;1.00;;;;;;5063353;28;20232;-79
2023/12/23 12:16:15;;;;;;;5.60;2.40;;;3.70;1.00;;;;;;5072863;28;20232;-79
2023/12/23 12:18:43;;;;;;;8.47;2.40;;;3.70;1.00;;;;;;5061803;28;20263;-79
2023/12/23 12:21:12;;;;;;;6.43;2.33;;;3.70;1.00;;;;;;5059860;28;20907;-78
2023/12/23 12:23:41;;;;;;;9.17;2.63;;;3.60;1.00;;;;;;5062434;28;20685;-79
2023/12/23 12:26:11;;;;;;;10.83;2.97;;;3.60;1.00;;;;;;5060227;28;20228;-78
2023/12/23 12:28:39;;;;;;;8.60;2.63;;;3.80;1.00;;;;;;5056139;28;20217;-78
2023/12/23 12:31:10;;;;;;;7.70;2.77;;;3.90;1.00;;;;;;5062285;28;20220;-78
2023/12/23 12:33:42;;;;;;;8.40;3.27;;;3.90;1.00;;;;;;5059471;28;20220;-78
2023/12/23 12:36:13;;;;;;;10.17;2.80;;;3.90;1.00;;;;;;5049764;28;20221;-79
2023/12/23 12:38:43;;;;;;;8.80;2.57;;;3.90;1.00;;;;;;5063872;28;20228;-78
2023/12/23 12:41:13;;;;;;;10.17;2.80;;;3.80;1.00;;;;;;5057569;28;20438;-79
2023/12/23 12:43:42;;;;;;;9.20;3.00;;;3.70;1.00;;;;;;5059178;28;20259;-80
2023/12/23 12:46:14;;;;;;;8.70;2.63;;;3.60;1.00;;;;;;5058023;28;20218;-78
2023/12/23 12:48:45;;;;;;;6.47;2.63;;;3.50;1.00;;;;;;5079407;28;20230;-78
2023/12/23 12:51:16;;;;;;;8.27;2.90;;;3.60;1.00;;;;;;5063251;28;20301;-78
2023/12/23 12:53:46;;;;;;;7.17;2.87;;;3.60;1.00;;;;;;5059554;28;20224;-79
2023/12/23 12:56:20;;;;;;;6.93;2.90;;;3.50;1.00;;;;;;5060178;28;20250;-78
2023/12/23 12:58:51;;;;;;;7.80;2.77;;;3.40;1.00;;;;;;5051761;28;20311;-79
2023/12/23 13:01:20;;;;;;;12.90;3.00;;;3.50;1.00;;;;;;5053441;28;20247;-77
2023/12/23 13:03:49;;;;;;;9.40;2.93;;;3.50;1.00;;;;;;5062411;28;20663;-77
2023/12/23 13:06:18;;;;;;;6.27;2.33;;;3.50;1.00;;;;;;5059575;28;20224;-76
2023/12/23 13:08:47;;;;;;;8.43;2.90;;;3.50;1.00;;;;;;5072127;28;20340;-79
2023/12/23 13:11:17;;;;;;;5.50;2.60;;;3.40;1.00;;;;;;5055919;28;20220;-77
2023/12/23 13:13:45;;;;;;;9.43;2.73;;;3.30;1.00;;;;;;5057969;28;20745;-78
2023/12/23 13:16:14;;;;;;;4.20;1.90;;;3.30;1.00;;;;;;5057778;28;20571;-78
2023/12/23 13:18:42;;;;;;;6.37;2.10;;;3.40;1.00;;;;;;5056759;28;20259;-78